Terminal Aerodrome Forecast
Issued by NWS

Home | Current Version | Previous Version | Text Only | Print | Product List | Glossary On
Versions: 1 2 3 4 5 6 7 8 9 10 11 12 13 14 15 16 17 18 19 20 21 22 23 24
000
FTUS43 KLSX 170500
TAFSUS
TAF
KSUS 170520Z 1706/1806 20005KT P6SM SCT250
     FM170700 27005KT P6SM FEW040 SCT250
     FM171700 29012G20KT P6SM FEW050
     FM180100 30009KT P6SM BKN050=

USA.gov is the U.S. government's official web portal to all federal, state and local government web resources and services.